sensor_id;sensor_type;location;lat;lon;timestamp;P1;durP1;ratioP1;P2;durP2;ratioP2
21878;SDS011;27908;42.708;23.278;2023-02-21T00:00:03;6.05;;;2.85;;
21878;SDS011;27908;42.708;23.278;2023-02-21T00:02:48;12.93;;;4.13;;
21878;SDS011;27908;42.708;23.278;2023-02-21T00:05:32;7.07;;;3.30;;
21878;SDS011;27908;42.708;23.278;2023-02-21T00:08:15;8.15;;;2.88;;
21878;SDS011;27908;42.708;23.278;2023-02-21T00:10:59;7.93;;;3.72;;
21878;SDS011;27908;42.708;23.278;2023-02-21T00:13:44;7.13;;;3.40;;
21878;SDS011;27908;42.708;23.278;2023-02-21T00:16:28;7.68;;;3.22;;
21878;SDS011;27908;42.708;23.278;2023-02-21T00:19:12;8.38;;;3.03;;
21878;SDS011;27908;42.708;23.278;2023-02-21T00:21:55;9.93;;;3.60;;
21878;SDS011;27908;42.708;23.278;2023-02-21T00:24:39;8.70;;;3.42;;
21878;SDS011;27908;42.708;23.278;2023-02-21T00:27:24;8.13;;;2.85;;
21878;SDS011;27908;42.708;23.278;2023-02-21T00:30:08;8.38;;;3.30;;
21878;SDS011;27908;42.708;23.278;2023-02-21T00:32:52;9.18;;;3.88;;
21878;SDS011;27908;42.708;23.278;2023-02-21T00:35:36;8.60;;;3.45;;
21878;SDS011;27908;42.708;23.278;2023-02-21T00:38:20;7.63;;;3.05;;
21878;SDS011;27908;42.708;23.278;2023-02-21T00:41:04;8.57;;;3.53;;
21878;SDS011;27908;42.708;23.278;2023-02-21T00:43:48;7.63;;;3.17;;
21878;SDS011;27908;42.708;23.278;2023-02-21T00:46:32;9.13;;;2.83;;
21878;SDS011;27908;42.708;23.278;2023-02-21T00:49:15;8.98;;;3.55;;
21878;SDS011;27908;42.708;23.278;2023-02-21T00:51:59;7.43;;;3.38;;
21878;SDS011;27908;42.708;23.278;2023-02-21T00:54:43;6.88;;;2.50;;
21878;SDS011;27908;42.708;23.278;2023-02-21T00:57:27;7.70;;;3.58;;
21878;SDS011;27908;42.708;23.278;2023-02-21T01:00:22;7.10;;;2.80;;
21878;SDS011;27908;42.708;23.278;2023-02-21T01:03:07;8.65;;;3.35;;
21878;SDS011;27908;42.708;23.278;2023-02-21T01:05:52;9.18;;;3.20;;
21878;SDS011;27908;42.708;23.278;2023-02-21T01:08:43;7.10;;;2.93;;
21878;SDS011;27908;42.708;23.278;2023-02-21T01:29:39;8.13;;;3.33;;
21878;SDS011;27908;42.708;23.278;2023-02-21T01:32:23;9.10;;;3.38;;
21878;SDS011;27908;42.708;23.278;2023-02-21T01:35:07;8.10;;;2.97;;
21878;SDS011;27908;42.708;23.278;2023-02-21T01:37:51;7.03;;;3.10;;
21878;SDS011;27908;42.708;23.278;2023-02-21T01:40:38;9.18;;;2.80;;
21878;SDS011;27908;42.708;23.278;2023-02-21T01:43:24;6.90;;;2.97;;
21878;SDS011;27908;42.708;23.278;2023-02-21T01:46:10;6.85;;;2.83;;
21878;SDS011;27908;42.708;23.278;2023-02-21T01:48:55;8.57;;;2.70;;
21878;SDS011;27908;42.708;23.278;2023-02-21T01:51:41;7.93;;;3.38;;
21878;SDS011;27908;42.708;23.278;2023-02-21T01:54:30;6.88;;;2.72;;
21878;SDS011;27908;42.708;23.278;2023-02-21T01:57:16;8.25;;;3.03;;
21878;SDS011;27908;42.708;23.278;2023-02-21T02:00:03;6.97;;;2.60;;
21878;SDS011;27908;42.708;23.278;2023-02-21T02:03:00;6.72;;;2.80;;
21878;SDS011;27908;42.708;23.278;2023-02-21T02:05:49;8.43;;;2.85;;
21878;SDS011;27908;42.708;23.278;2023-02-21T02:08:37;9.07;;;2.80;;
21878;SDS011;27908;42.708;23.278;2023-02-21T02:17:08;7.18;;;2.75;;
21878;SDS011;27908;42.708;23.278;2023-02-21T02:30:56;9.45;;;3.10;;
21878;SDS011;27908;42.708;23.278;2023-02-21T02:33:35;7.47;;;2.75;;
21878;SDS011;27908;42.708;23.278;2023-02-21T02:36:11;7.95;;;2.63;;
21878;SDS011;27908;42.708;23.278;2023-02-21T02:44:41;7.10;;;3.22;;
21878;SDS011;27908;42.708;23.278;2023-02-21T02:47:26;7.93;;;3.13;;
21878;SDS011;27908;42.708;23.278;2023-02-21T02:49:55;7.40;;;3.22;;
21878;SDS011;27908;42.708;23.278;2023-02-21T02:52:23;7.32;;;2.90;;
21878;SDS011;27908;42.708;23.278;2023-02-21T02:54:58;6.82;;;2.65;;
21878;SDS011;27908;42.708;23.278;2023-02-21T02:57:29;7.57;;;2.40;;
21878;SDS011;27908;42.708;23.278;2023-02-21T03:00:05;6.70;;;2.35;;
21878;SDS011;27908;42.708;23.278;2023-02-21T03:02:48;7.35;;;2.47;;
21878;SDS011;27908;42.708;23.278;2023-02-21T03:05:45;6.25;;;2.42;;
21878;SDS011;27908;42.708;23.278;2023-02-21T03:08:32;7.85;;;2.15;;
21878;SDS011;27908;42.708;23.278;2023-02-21T03:11:13;6.20;;;2.50;;
21878;SDS011;27908;42.708;23.278;2023-02-21T03:14:05;6.88;;;2.40;;
21878;SDS011;27908;42.708;23.278;2023-02-21T03:16:34;7.32;;;2.35;;
21878;SDS011;27908;42.708;23.278;2023-02-21T03:19:11;7.22;;;2.95;;
21878;SDS011;27908;42.708;23.278;2023-02-21T03:21:49;7.07;;;2.47;;
21878;SDS011;27908;42.708;23.278;2023-02-21T03:24:18;6.88;;;2.85;;
21878;SDS011;27908;42.708;23.278;2023-02-21T03:26:46;7.35;;;2.53;;
21878;SDS011;27908;42.708;23.278;2023-02-21T03:29:15;7.10;;;2.47;;
21878;SDS011;27908;42.708;23.278;2023-02-21T03:31:44;10.52;;;3.22;;
21878;SDS011;27908;42.708;23.278;2023-02-21T03:34:13;7.50;;;2.70;;
21878;SDS011;27908;42.708;23.278;2023-02-21T03:36:39;6.40;;;2.40;;
21878;SDS011;27908;42.708;23.278;2023-02-21T03:39:05;6.75;;;2.45;;
21878;SDS011;27908;42.708;23.278;2023-02-21T03:41:31;7.50;;;2.70;;
21878;SDS011;27908;42.708;23.278;2023-02-21T03:43:56;7.80;;;2.97;;
21878;SDS011;27908;42.708;23.278;2023-02-21T03:46:21;6.37;;;2.70;;
21878;SDS011;27908;42.708;23.278;2023-02-21T03:48:47;6.53;;;2.57;;
21878;SDS011;27908;42.708;23.278;2023-02-21T03:51:12;6.90;;;2.57;;
21878;SDS011;27908;42.708;23.278;2023-02-21T03:53:38;9.18;;;3.15;;
21878;SDS011;27908;42.708;23.278;2023-02-21T03:56:03;8.30;;;2.97;;
21878;SDS011;27908;42.708;23.278;2023-02-21T03:58:29;7.65;;;3.28;;
21878;SDS011;27908;42.708;23.278;2023-02-21T04:00:55;4.93;;;1.73;;
21878;SDS011;27908;42.708;23.278;2023-02-21T04:03:21;7.97;;;3.20;;
21878;SDS011;27908;42.708;23.278;2023-02-21T04:05:47;7.97;;;2.83;;
21878;SDS011;27908;42.708;23.278;2023-02-21T04:08:12;8.67;;;3.73;;
21878;SDS011;27908;42.708;23.278;2023-02-21T04:10:38;6.93;;;2.60;;
21878;SDS011;27908;42.708;23.278;2023-02-21T04:13:03;10.55;;;3.13;;
21878;SDS011;27908;42.708;23.278;2023-02-21T04:15:28;8.97;;;2.77;;
21878;SDS011;27908;42.708;23.278;2023-02-21T04:17:54;9.23;;;3.50;;
21878;SDS011;27908;42.708;23.278;2023-02-21T04:20:19;10.47;;;3.10;;
21878;SDS011;27908;42.708;23.278;2023-02-21T04:22:45;9.30;;;3.10;;
21878;SDS011;27908;42.708;23.278;2023-02-21T04:25:10;6.90;;;3.03;;
21878;SDS011;27908;42.708;23.278;2023-02-21T04:27:36;10.20;;;3.57;;
21878;SDS011;27908;42.708;23.278;2023-02-21T04:30:01;9.43;;;3.20;;
21878;SDS011;27908;42.708;23.278;2023-02-21T04:32:27;8.75;;;3.03;;
21878;SDS011;27908;42.708;23.278;2023-02-21T04:34:52;7.80;;;3.60;;
21878;SDS011;27908;42.708;23.278;2023-02-21T04:37:18;8.67;;;3.20;;
21878;SDS011;27908;42.708;23.278;2023-02-21T04:39:44;10.98;;;3.88;;
21878;SDS011;27908;42.708;23.278;2023-02-21T04:42:09;7.27;;;2.87;;
21878;SDS011;27908;42.708;23.278;2023-02-21T04:44:35;8.52;;;3.58;;
21878;SDS011;27908;42.708;23.278;2023-02-21T04:47:01;8.38;;;3.13;;
21878;SDS011;27908;42.708;23.278;2023-02-21T04:49:26;6.53;;;2.90;;
21878;SDS011;27908;42.708;23.278;2023-02-21T04:51:52;7.93;;;3.23;;
21878;SDS011;27908;42.708;23.278;2023-02-21T04:54:18;11.07;;;3.60;;
21878;SDS011;27908;42.708;23.278;2023-02-21T04:56:43;8.37;;;3.50;;
21878;SDS011;27908;42.708;23.278;2023-02-21T04:59:09;8.90;;;3.33;;
21878;SDS011;27908;42.708;23.278;2023-02-21T05:01:34;9.35;;;3.70;;
21878;SDS011;27908;42.708;23.278;2023-02-21T05:04:00;10.93;;;4.03;;
21878;SDS011;27908;42.708;23.278;2023-02-21T05:06:26;6.90;;;2.95;;
21878;SDS011;27908;42.708;23.278;2023-02-21T05:08:53;11.57;;;4.30;;
21878;SDS011;27908;42.708;23.278;2023-02-21T05:11:19;15.07;;;5.88;;
21878;SDS011;27908;42.708;23.278;2023-02-21T05:13:45;16.75;;;5.63;;
21878;SDS011;27908;42.708;23.278;2023-02-21T05:16:11;14.93;;;6.65;;
21878;SDS011;27908;42.708;23.278;2023-02-21T05:18:37;16.85;;;6.32;;
21878;SDS011;27908;42.708;23.278;2023-02-21T05:21:06;14.60;;;6.30;;
21878;SDS011;27908;42.708;23.278;2023-02-21T05:23:32;14.85;;;5.97;;
21878;SDS011;27908;42.708;23.278;2023-02-21T05:26:19;17.25;;;5.47;;
21878;SDS011;27908;42.708;23.278;2023-02-21T05:28:43;11.10;;;4.40;;
21878;SDS011;27908;42.708;23.278;2023-02-21T05:31:09;8.30;;;3.80;;
21878;SDS011;27908;42.708;23.278;2023-02-21T05:33:34;10.37;;;4.40;;
21878;SDS011;27908;42.708;23.278;2023-02-21T05:36:00;6.70;;;3.10;;
21878;SDS011;27908;42.708;23.278;2023-02-21T05:38:25;9.25;;;4.07;;
21878;SDS011;27908;42.708;23.278;2023-02-21T05:40:51;12.10;;;4.80;;
21878;SDS011;27908;42.708;23.278;2023-02-21T05:43:17;14.60;;;4.87;;
21878;SDS011;27908;42.708;23.278;2023-02-21T05:45:42;8.80;;;3.92;;
21878;SDS011;27908;42.708;23.278;2023-02-21T05:48:08;15.03;;;4.80;;
21878;SDS011;27908;42.708;23.278;2023-02-21T05:50:33;14.30;;;5.20;;
21878;SDS011;27908;42.708;23.278;2023-02-21T05:52:59;13.80;;;5.88;;
21878;SDS011;27908;42.708;23.278;2023-02-21T05:55:25;42.40;;;13.00;;
21878;SDS011;27908;42.708;23.278;2023-02-21T05:57:51;42.00;;;12.35;;
21878;SDS011;27908;42.708;23.278;2023-02-21T06:00:18;27.38;;;8.70;;
21878;SDS011;27908;42.708;23.278;2023-02-21T06:02:50;24.88;;;8.57;;
21878;SDS011;27908;42.708;23.278;2023-02-21T06:05:16;18.37;;;7.00;;
21878;SDS011;27908;42.708;23.278;2023-02-21T06:07:43;18.13;;;6.10;;
21878;SDS011;27908;42.708;23.278;2023-02-21T06:10:09;11.20;;;5.18;;
21878;SDS011;27908;42.708;23.278;2023-02-21T06:12:34;12.37;;;4.03;;
21878;SDS011;27908;42.708;23.278;2023-02-21T06:15:00;14.47;;;4.57;;
21878;SDS011;27908;42.708;23.278;2023-02-21T06:17:26;11.93;;;4.05;;
21878;SDS011;27908;42.708;23.278;2023-02-21T06:19:54;15.93;;;5.20;;
21878;SDS011;27908;42.708;23.278;2023-02-21T06:22:20;12.70;;;4.43;;
21878;SDS011;27908;42.708;23.278;2023-02-21T06:24:45;12.37;;;5.40;;
21878;SDS011;27908;42.708;23.278;2023-02-21T06:27:11;14.43;;;4.63;;
21878;SDS011;27908;42.708;23.278;2023-02-21T06:29:36;12.83;;;4.73;;
21878;SDS011;27908;42.708;23.278;2023-02-21T06:32:01;9.43;;;4.00;;
21878;SDS011;27908;42.708;23.278;2023-02-21T06:34:27;13.03;;;4.30;;
21878;SDS011;27908;42.708;23.278;2023-02-21T06:36:53;11.63;;;4.27;;
21878;SDS011;27908;42.708;23.278;2023-02-21T06:39:20;14.00;;;4.60;;
21878;SDS011;27908;42.708;23.278;2023-02-21T06:41:48;10.88;;;4.22;;
21878;SDS011;27908;42.708;23.278;2023-02-21T06:44:14;13.80;;;4.20;;
21878;SDS011;27908;42.708;23.278;2023-02-21T06:46:40;14.77;;;4.00;;
21878;SDS011;27908;42.708;23.278;2023-02-21T06:49:06;13.55;;;4.43;;
21878;SDS011;27908;42.708;23.278;2023-02-21T06:51:35;11.60;;;4.50;;
21878;SDS011;27908;42.708;23.278;2023-02-21T06:54:01;10.68;;;4.15;;
21878;SDS011;27908;42.708;23.278;2023-02-21T06:56:28;10.70;;;4.28;;
21878;SDS011;27908;42.708;23.278;2023-02-21T06:58:53;14.47;;;4.40;;
21878;SDS011;27908;42.708;23.278;2023-02-21T07:01:19;17.55;;;5.22;;
21878;SDS011;27908;42.708;23.278;2023-02-21T07:03:44;13.90;;;4.87;;
21878;SDS011;27908;42.708;23.278;2023-02-21T07:06:11;15.50;;;4.90;;
21878;SDS011;27908;42.708;23.278;2023-02-21T07:08:37;11.30;;;4.80;;
21878;SDS011;27908;42.708;23.278;2023-02-21T07:11:03;14.60;;;5.00;;
21878;SDS011;27908;42.708;23.278;2023-02-21T07:13:29;10.65;;;4.40;;
21878;SDS011;27908;42.708;23.278;2023-02-21T07:15:55;15.27;;;4.28;;
21878;SDS011;27908;42.708;23.278;2023-02-21T07:18:21;14.33;;;4.43;;
21878;SDS011;27908;42.708;23.278;2023-02-21T07:20:46;16.67;;;4.33;;
21878;SDS011;27908;42.708;23.278;2023-02-21T07:23:12;14.63;;;4.37;;
21878;SDS011;27908;42.708;23.278;2023-02-21T07:25:37;12.80;;;3.87;;
21878;SDS011;27908;42.708;23.278;2023-02-21T07:28:02;13.02;;;4.10;;
21878;SDS011;27908;42.708;23.278;2023-02-21T07:30:28;15.37;;;3.77;;
21878;SDS011;27908;42.708;23.278;2023-02-21T07:32:55;14.93;;;5.15;;
21878;SDS011;27908;42.708;23.278;2023-02-21T07:35:21;11.27;;;3.10;;
21878;SDS011;27908;42.708;23.278;2023-02-21T07:37:46;10.17;;;3.17;;
21878;SDS011;27908;42.708;23.278;2023-02-21T07:40:12;10.63;;;3.23;;
21878;SDS011;27908;42.708;23.278;2023-02-21T07:42:39;7.93;;;3.23;;
21878;SDS011;27908;42.708;23.278;2023-02-21T07:45:07;11.63;;;3.42;;
21878;SDS011;27908;42.708;23.278;2023-02-21T07:47:33;12.20;;;4.00;;
21878;SDS011;27908;42.708;23.278;2023-02-21T07:49:59;13.83;;;3.70;;
21878;SDS011;27908;42.708;23.278;2023-02-21T07:52:24;9.67;;;3.50;;
21878;SDS011;27908;42.708;23.278;2023-02-21T07:54:50;11.20;;;4.07;;
21878;SDS011;27908;42.708;23.278;2023-02-21T07:57:15;9.50;;;4.03;;
21878;SDS011;27908;42.708;23.278;2023-02-21T07:59:41;13.67;;;4.80;;
21878;SDS011;27908;42.708;23.278;2023-02-21T08:02:08;12.07;;;5.10;;
21878;SDS011;27908;42.708;23.278;2023-02-21T08:04:35;10.03;;;4.23;;
21878;SDS011;27908;42.708;23.278;2023-02-21T08:07:01;12.95;;;4.53;;
21878;SDS011;27908;42.708;23.278;2023-02-21T08:09:27;15.47;;;4.60;;
21878;SDS011;27908;42.708;23.278;2023-02-21T08:11:53;18.55;;;6.30;;
21878;SDS011;27908;42.708;23.278;2023-02-21T08:14:18;16.90;;;5.33;;
21878;SDS011;27908;42.708;23.278;2023-02-21T08:16:44;21.30;;;6.13;;
21878;SDS011;27908;42.708;23.278;2023-02-21T08:19:09;18.10;;;6.03;;
21878;SDS011;27908;42.708;23.278;2023-02-21T08:21:34;23.40;;;7.00;;
21878;SDS011;27908;42.708;23.278;2023-02-21T08:24:00;32.50;;;7.63;;
21878;SDS011;27908;42.708;23.278;2023-02-21T08:26:25;31.13;;;8.43;;
21878;SDS011;27908;42.708;23.278;2023-02-21T08:28:51;30.57;;;7.73;;
21878;SDS011;27908;42.708;23.278;2023-02-21T08:31:16;25.70;;;7.00;;
21878;SDS011;27908;42.708;23.278;2023-02-21T08:33:43;18.10;;;6.30;;
21878;SDS011;27908;42.708;23.278;2023-02-21T08:36:09;21.30;;;7.03;;
21878;SDS011;27908;42.708;23.278;2023-02-21T08:38:34;23.77;;;7.75;;
21878;SDS011;27908;42.708;23.278;2023-02-21T08:41:00;18.70;;;6.90;;
21878;SDS011;27908;42.708;23.278;2023-02-21T08:43:26;18.75;;;6.90;;
21878;SDS011;27908;42.708;23.278;2023-02-21T08:45:52;17.13;;;6.97;;
21878;SDS011;27908;42.708;23.278;2023-02-21T08:48:18;16.70;;;6.40;;
21878;SDS011;27908;42.708;23.278;2023-02-21T08:50:43;20.57;;;6.43;;
21878;SDS011;27908;42.708;23.278;2023-02-21T08:53:12;16.13;;;6.10;;
21878;SDS011;27908;42.708;23.278;2023-02-21T08:55:38;18.53;;;6.13;;
21878;SDS011;27908;42.708;23.278;2023-02-21T08:58:03;19.15;;;6.10;;
21878;SDS011;27908;42.708;23.278;2023-02-21T09:00:29;20.40;;;6.97;;
21878;SDS011;27908;42.708;23.278;2023-02-21T09:02:55;21.70;;;5.70;;
21878;SDS011;27908;42.708;23.278;2023-02-21T09:05:28;18.30;;;6.32;;
21878;SDS011;27908;42.708;23.278;2023-02-21T09:07:55;16.20;;;6.38;;
21878;SDS011;27908;42.708;23.278;2023-02-21T09:10:26;17.93;;;6.60;;
21878;SDS011;27908;42.708;23.278;2023-02-21T09:12:57;18.45;;;7.00;;
21878;SDS011;27908;42.708;23.278;2023-02-21T09:15:23;16.80;;;6.63;;
21878;SDS011;27908;42.708;23.278;2023-02-21T09:17:49;16.17;;;6.27;;
21878;SDS011;27908;42.708;23.278;2023-02-21T09:20:16;15.23;;;6.93;;
21878;SDS011;27908;42.708;23.278;2023-02-21T09:22:43;17.30;;;6.90;;
21878;SDS011;27908;42.708;23.278;2023-02-21T09:25:09;14.65;;;6.30;;
21878;SDS011;27908;42.708;23.278;2023-02-21T09:27:37;24.17;;;8.15;;
21878;SDS011;27908;42.708;23.278;2023-02-21T09:30:06;12.77;;;6.60;;
21878;SDS011;27908;42.708;23.278;2023-02-21T09:32:39;15.15;;;6.18;;
21878;SDS011;27908;42.708;23.278;2023-02-21T09:35:06;14.93;;;6.43;;
21878;SDS011;27908;42.708;23.278;2023-02-21T09:37:35;11.82;;;5.40;;
21878;SDS011;27908;42.708;23.278;2023-02-21T09:40:03;28.17;;;7.50;;
21878;SDS011;27908;42.708;23.278;2023-02-21T09:42:31;16.23;;;6.60;;
21878;SDS011;27908;42.708;23.278;2023-02-21T09:44:56;26.63;;;6.97;;
21878;SDS011;27908;42.708;23.278;2023-02-21T09:47:29;22.08;;;7.05;;
21878;SDS011;27908;42.708;23.278;2023-02-21T09:50:05;18.10;;;6.18;;
21878;SDS011;27908;42.708;23.278;2023-02-21T09:52:37;17.95;;;6.53;;
21878;SDS011;27908;42.708;23.278;2023-02-21T09:55:07;15.23;;;6.13;;
21878;SDS011;27908;42.708;23.278;2023-02-21T09:57:38;14.23;;;4.80;;
21878;SDS011;27908;42.708;23.278;2023-02-21T10:00:37;7.07;;;2.30;;
21878;SDS011;27908;42.708;23.278;2023-02-21T10:03:23;10.57;;;2.67;;
21878;SDS011;27908;42.708;23.278;2023-02-21T10:06:00;5.95;;;2.45;;
21878;SDS011;27908;42.708;23.278;2023-02-21T10:08:43;5.22;;;2.05;;
21878;SDS011;27908;42.708;23.278;2023-02-21T10:11:29;10.30;;;2.25;;
21878;SDS011;27908;42.708;23.278;2023-02-21T10:16:52;5.20;;;2.00;;
21878;SDS011;27908;42.708;23.278;2023-02-21T10:21:58;5.57;;;1.80;;
21878;SDS011;27908;42.708;23.278;2023-02-21T10:24:27;5.10;;;1.80;;
21878;SDS011;27908;42.708;23.278;2023-02-21T10:26:56;9.65;;;2.90;;
21878;SDS011;27908;42.708;23.278;2023-02-21T10:29:34;10.10;;;2.40;;
21878;SDS011;27908;42.708;23.278;2023-02-21T10:32:02;5.97;;;2.10;;
21878;SDS011;27908;42.708;23.278;2023-02-21T10:34:29;7.93;;;2.65;;
21878;SDS011;27908;42.708;23.278;2023-02-21T10:36:57;5.28;;;1.95;;
21878;SDS011;27908;42.708;23.278;2023-02-21T10:39:31;5.30;;;2.03;;
21878;SDS011;27908;42.708;23.278;2023-02-21T10:42:03;6.30;;;2.30;;
21878;SDS011;27908;42.708;23.278;2023-02-21T10:44:29;7.00;;;1.90;;
21878;SDS011;27908;42.708;23.278;2023-02-21T10:49:55;6.70;;;2.05;;
21878;SDS011;27908;42.708;23.278;2023-02-21T10:52:25;7.43;;;2.00;;
21878;SDS011;27908;42.708;23.278;2023-02-21T10:57:49;6.40;;;1.90;;
21878;SDS011;27908;42.708;23.278;2023-02-21T11:00:20;5.60;;;2.08;;
21878;SDS011;27908;42.708;23.278;2023-02-21T11:02:49;7.45;;;2.05;;
21878;SDS011;27908;42.708;23.278;2023-02-21T11:05:19;6.88;;;1.90;;
21878;SDS011;27908;42.708;23.278;2023-02-21T11:07:58;6.03;;;2.10;;
21878;SDS011;27908;42.708;23.278;2023-02-21T11:10:25;5.23;;;1.80;;
21878;SDS011;27908;42.708;23.278;2023-02-21T11:13:19;8.02;;;2.20;;
21878;SDS011;27908;42.708;23.278;2023-02-21T11:15:46;5.20;;;1.98;;
21878;SDS011;27908;42.708;23.278;2023-02-21T11:20:41;7.70;;;1.77;;
21878;SDS011;27908;42.708;23.278;2023-02-21T11:23:17;5.80;;;1.77;;
21878;SDS011;27908;42.708;23.278;2023-02-21T11:25:43;5.78;;;1.80;;
21878;SDS011;27908;42.708;23.278;2023-02-21T11:30:36;5.67;;;1.90;;
21878;SDS011;27908;42.708;23.278;2023-02-21T11:33:04;5.18;;;1.90;;
21878;SDS011;27908;42.708;23.278;2023-02-21T11:35:33;5.90;;;2.10;;
21878;SDS011;27908;42.708;23.278;2023-02-21T11:38:07;8.68;;;2.20;;
21878;SDS011;27908;42.708;23.278;2023-02-21T11:40:53;5.87;;;2.07;;
21878;SDS011;27908;42.708;23.278;2023-02-21T11:43:25;5.25;;;1.65;;
21878;SDS011;27908;42.708;23.278;2023-02-21T11:48:53;5.45;;;1.90;;
21878;SDS011;27908;42.708;23.278;2023-02-21T11:54:12;6.03;;;1.73;;
21878;SDS011;27908;42.708;23.278;2023-02-21T11:56:57;8.32;;;1.55;;
21878;SDS011;27908;42.708;23.278;2023-02-21T12:07:42;4.90;;;1.38;;
21878;SDS011;27908;42.708;23.278;2023-02-21T12:10:43;6.93;;;1.50;;
21878;SDS011;27908;42.708;23.278;2023-02-21T12:13:17;5.70;;;1.63;;
21878;SDS011;27908;42.708;23.278;2023-02-21T12:21:46;6.88;;;1.70;;
21878;SDS011;27908;42.708;23.278;2023-02-21T12:38:11;5.00;;;2.00;;
21878;SDS011;27908;42.708;23.278;2023-02-21T12:40:58;5.97;;;1.90;;
21878;SDS011;27908;42.708;23.278;2023-02-21T12:43:44;5.32;;;1.85;;
21878;SDS011;27908;42.708;23.278;2023-02-21T12:51:48;5.50;;;1.80;;
21878;SDS011;27908;42.708;23.278;2023-02-21T12:54:20;5.67;;;1.50;;
21878;SDS011;27908;42.708;23.278;2023-02-21T13:02:22;6.13;;;1.90;;
21878;SDS011;27908;42.708;23.278;2023-02-21T13:04:59;7.00;;;1.70;;
21878;SDS011;27908;42.708;23.278;2023-02-21T13:10:21;5.60;;;1.85;;
21878;SDS011;27908;42.708;23.278;2023-02-21T13:13:01;7.15;;;2.08;;
21878;SDS011;27908;42.708;23.278;2023-02-21T13:15:33;6.00;;;1.90;;
21878;SDS011;27908;42.708;23.278;2023-02-21T13:18:01;5.78;;;1.60;;
21878;SDS011;27908;42.708;23.278;2023-02-21T13:20:33;6.43;;;1.87;;
21878;SDS011;27908;42.708;23.278;2023-02-21T13:29:09;5.75;;;1.70;;
21878;SDS011;27908;42.708;23.278;2023-02-21T13:31:42;7.13;;;2.05;;
21878;SDS011;27908;42.708;23.278;2023-02-21T13:34:10;6.03;;;1.80;;
21878;SDS011;27908;42.708;23.278;2023-02-21T13:36:43;6.05;;;1.80;;
21878;SDS011;27908;42.708;23.278;2023-02-21T13:39:12;6.72;;;2.00;;
21878;SDS011;27908;42.708;23.278;2023-02-21T13:42:02;6.43;;;2.00;;
21878;SDS011;27908;42.708;23.278;2023-02-21T13:44:32;6.60;;;1.85;;
21878;SDS011;27908;42.708;23.278;2023-02-21T13:57:34;7.22;;;1.90;;
21878;SDS011;27908;42.708;23.278;2023-02-21T14:03:27;5.90;;;1.83;;
21878;SDS011;27908;42.708;23.278;2023-02-21T14:08:22;6.13;;;1.70;;
21878;SDS011;27908;42.708;23.278;2023-02-21T14:13:48;7.35;;;2.00;;
21878;SDS011;27908;42.708;23.278;2023-02-21T14:16:22;6.05;;;2.10;;
21878;SDS011;27908;42.708;23.278;2023-02-21T14:21:28;5.35;;;1.77;;
21878;SDS011;27908;42.708;23.278;2023-02-21T14:29:41;5.83;;;1.87;;
21878;SDS011;27908;42.708;23.278;2023-02-21T14:39:55;7.40;;;2.10;;
21878;SDS011;27908;42.708;23.278;2023-02-21T14:45:27;6.80;;;1.90;;
21878;SDS011;27908;42.708;23.278;2023-02-21T14:48:07;7.65;;;2.00;;
21878;SDS011;27908;42.708;23.278;2023-02-21T14:59:15;5.78;;;1.80;;
21878;SDS011;27908;42.708;23.278;2023-02-21T15:09:39;5.72;;;2.00;;
21878;SDS011;27908;42.708;23.278;2023-02-21T15:12:08;6.73;;;2.43;;
21878;SDS011;27908;42.708;23.278;2023-02-21T15:14:39;6.75;;;1.98;;
21878;SDS011;27908;42.708;23.278;2023-02-21T15:17:21;8.10;;;2.47;;
21878;SDS011;27908;42.708;23.278;2023-02-21T15:22:56;6.82;;;2.20;;
21878;SDS011;27908;42.708;23.278;2023-02-21T15:25:29;7.13;;;2.40;;
21878;SDS011;27908;42.708;23.278;2023-02-21T15:27:56;7.23;;;2.70;;
21878;SDS011;27908;42.708;23.278;2023-02-21T15:30:52;9.65;;;2.55;;
21878;SDS011;27908;42.708;23.278;2023-02-21T15:33:19;6.63;;;2.08;;
21878;SDS011;27908;42.708;23.278;2023-02-21T15:35:56;5.95;;;1.92;;
21878;SDS011;27908;42.708;23.278;2023-02-21T15:41:06;5.57;;;1.80;;
21878;SDS011;27908;42.708;23.278;2023-02-21T15:46:12;8.93;;;2.50;;
21878;SDS011;27908;42.708;23.278;2023-02-21T15:48:45;8.52;;;2.35;;
21878;SDS011;27908;42.708;23.278;2023-02-21T15:51:12;10.55;;;2.67;;
21878;SDS011;27908;42.708;23.278;2023-02-21T15:53:38;7.70;;;2.70;;
21878;SDS011;27908;42.708;23.278;2023-02-21T15:56:14;9.40;;;2.63;;
21878;SDS011;27908;42.708;23.278;2023-02-21T15:59:00;7.20;;;2.50;;
21878;SDS011;27908;42.708;23.278;2023-02-21T16:01:32;7.40;;;2.50;;
21878;SDS011;27908;42.708;23.278;2023-02-21T16:04:12;7.30;;;3.20;;
21878;SDS011;27908;42.708;23.278;2023-02-21T16:06:46;7.80;;;3.20;;
21878;SDS011;27908;42.708;23.278;2023-02-21T16:09:23;8.90;;;3.70;;
21878;SDS011;27908;42.708;23.278;2023-02-21T16:19:38;16.00;;;5.17;;
21878;SDS011;27908;42.708;23.278;2023-02-21T16:25:17;12.50;;;3.40;;
21878;SDS011;27908;42.708;23.278;2023-02-21T16:27:49;11.65;;;2.90;;
21878;SDS011;27908;42.708;23.278;2023-02-21T16:33:08;12.97;;;3.47;;
21878;SDS011;27908;42.708;23.278;2023-02-21T16:35:37;11.25;;;3.65;;
21878;SDS011;27908;42.708;23.278;2023-02-21T16:38:04;19.40;;;8.65;;
21878;SDS011;27908;42.708;23.278;2023-02-21T16:40:32;10.25;;;3.33;;
21878;SDS011;27908;42.708;23.278;2023-02-21T16:42:58;15.82;;;5.70;;
21878;SDS011;27908;42.708;23.278;2023-02-21T16:45:26;12.17;;;3.50;;
21878;SDS011;27908;42.708;23.278;2023-02-21T16:47:59;14.35;;;4.93;;
21878;SDS011;27908;42.708;23.278;2023-02-21T16:50:27;12.80;;;4.95;;
21878;SDS011;27908;42.708;23.278;2023-02-21T16:52:55;18.02;;;8.63;;
21878;SDS011;27908;42.708;23.278;2023-02-21T16:55:21;13.97;;;5.27;;
21878;SDS011;27908;42.708;23.278;2023-02-21T16:57:47;14.50;;;4.60;;
21878;SDS011;27908;42.708;23.278;2023-02-21T17:00:15;10.43;;;4.53;;
21878;SDS011;27908;42.708;23.278;2023-02-21T17:02:44;14.10;;;5.32;;
21878;SDS011;27908;42.708;23.278;2023-02-21T17:05:09;36.90;;;12.30;;
21878;SDS011;27908;42.708;23.278;2023-02-21T17:07:36;10.95;;;4.50;;
21878;SDS011;27908;42.708;23.278;2023-02-21T17:10:02;12.15;;;4.70;;
21878;SDS011;27908;42.708;23.278;2023-02-21T17:12:28;13.48;;;4.07;;
21878;SDS011;27908;42.708;23.278;2023-02-21T17:14:53;10.83;;;3.57;;
21878;SDS011;27908;42.708;23.278;2023-02-21T17:17:18;11.73;;;2.80;;
21878;SDS011;27908;42.708;23.278;2023-02-21T17:19:44;9.68;;;3.55;;
21878;SDS011;27908;42.708;23.278;2023-02-21T17:22:09;14.10;;;4.87;;
21878;SDS011;27908;42.708;23.278;2023-02-21T17:24:35;12.13;;;4.60;;
21878;SDS011;27908;42.708;23.278;2023-02-21T17:27:00;18.30;;;8.27;;
21878;SDS011;27908;42.708;23.278;2023-02-21T17:29:26;22.58;;;10.40;;
21878;SDS011;27908;42.708;23.278;2023-02-21T17:31:52;22.43;;;10.77;;
21878;SDS011;27908;42.708;23.278;2023-02-21T17:34:18;21.25;;;7.13;;
21878;SDS011;27908;42.708;23.278;2023-02-21T17:36:46;15.27;;;4.87;;
21878;SDS011;27908;42.708;23.278;2023-02-21T17:39:16;16.02;;;6.40;;
21878;SDS011;27908;42.708;23.278;2023-02-21T17:41:46;14.00;;;6.78;;
21878;SDS011;27908;42.708;23.278;2023-02-21T17:44:12;14.43;;;4.97;;
21878;SDS011;27908;42.708;23.278;2023-02-21T17:46:38;12.38;;;5.03;;
21878;SDS011;27908;42.708;23.278;2023-02-21T17:49:03;13.13;;;5.73;;
21878;SDS011;27908;42.708;23.278;2023-02-21T17:51:29;29.83;;;13.60;;
21878;SDS011;27908;42.708;23.278;2023-02-21T17:53:54;12.40;;;5.30;;
21878;SDS011;27908;42.708;23.278;2023-02-21T17:56:21;14.32;;;4.38;;
21878;SDS011;27908;42.708;23.278;2023-02-21T17:58:50;15.15;;;6.07;;